Time;durP1;ratioP1;P1;durP2;ratioP2;P2;SDS_P1;SDS_P2;PMS_P1;PMS_P2;Temp;Humidity;BMP_temperature;BMP_pressure;BME280_temperature;BME280_humidity;BME280_pressure;Samples;Min_cycle;Max_cycle;Signal;HPM_P1;HPM_P2
2023/09/14 00:00:20;;;;;;;25.38;16.25;;;15.70;99.90;;;;;;8134868;29;20059;-78
2023/09/14 00:04:21;;;;;;;27.02;16.40;;;15.60;99.90;;;;;;8150184;29;20687;-78
2023/09/14 00:08:22;;;;;;;29.92;15.48;;;15.60;99.90;;;;;;8150058;29;20110;-77
2023/09/14 00:12:23;;;;;;;22.30;13.70;;;15.50;99.90;;;;;;8150189;29;20099;-78
2023/09/14 00:16:23;;;;;;;22.33;13.85;;;15.70;99.90;;;;;;8149170;29;20091;-78
2023/09/14 00:20:26;;;;;;;18.85;13.32;;;15.70;99.90;;;;;;8150245;29;20063;-78
2023/09/14 00:24:27;;;;;;;21.48;13.45;;;15.90;99.90;;;;;;8135620;29;20020;-78
2023/09/14 00:28:27;;;;;;;22.48;13.80;;;16.00;99.90;;;;;;8147440;29;20038;-78
2023/09/14 00:32:28;;;;;;;24.65;14.70;;;15.80;99.90;;;;;;8150074;29;20488;-79
2023/09/14 00:36:28;;;;;;;26.80;14.23;;;15.50;99.90;;;;;;8149375;29;20035;-79
2023/09/14 00:40:29;;;;;;;21.23;12.98;;;15.20;99.90;;;;;;8149946;29;20392;-78
2023/09/14 00:44:29;;;;;;;34.17;16.15;;;15.10;99.90;;;;;;8149603;29;20032;-78
2023/09/14 00:48:32;;;;;;;31.42;15.50;;;14.90;99.90;;;;;;8149343;29;20032;-78
2023/09/14 00:52:35;;;;;;;42.92;17.05;;;14.90;99.90;;;;;;8149528;29;20151;-77
2023/09/14 00:56:36;;;;;;;37.10;18.15;;;14.80;99.90;;;;;;8148964;29;20016;-78
2023/09/14 01:00:37;;;;;;;41.38;18.17;;;14.90;99.90;;;;;;8149346;29;20043;-79
2023/09/14 01:04:37;;;;;;;34.88;17.55;;;14.80;99.90;;;;;;8148489;29;20031;-78
2023/09/14 01:08:39;;;;;;;35.17;17.17;;;14.90;99.90;;;;;;8134311;29;20036;-78
2023/09/14 01:12:39;;;;;;;32.10;16.92;;;14.80;99.90;;;;;;8148831;29;20028;-78
2023/09/14 01:16:45;;;;;;;36.25;18.92;;;14.80;99.90;;;;;;8151151;29;20477;-78
2023/09/14 01:21:04;;;;;;;35.55;16.63;;;14.80;99.90;;;;;;8159288;29;20055;-78
2023/09/14 01:25:28;;;;;;;37.83;17.67;;;14.70;99.90;;;;;;8142667;29;20585;-79
2023/09/14 01:29:28;;;;;;;36.78;17.65;;;14.70;99.90;;;;;;8156493;29;20614;-78
2023/09/14 01:33:29;;;;;;;26.65;14.60;;;14.70;99.90;;;;;;8142716;29;20062;-79
2023/09/14 01:37:31;;;;;;;27.85;15.63;;;14.60;99.90;;;;;;8159116;29;20469;-78
2023/09/14 01:41:34;;;;;;;32.13;13.52;;;14.40;99.90;;;;;;8159702;29;20127;-78
2023/09/14 01:45:35;;;;;;;30.27;15.40;;;14.30;99.90;;;;;;8144795;29;20020;-78
2023/09/14 01:49:35;;;;;;;47.88;18.02;;;14.30;99.90;;;;;;8161293;29;20067;-78
2023/09/14 01:53:36;;;;;;;46.22;18.48;;;14.40;99.90;;;;;;8144263;29;20024;-78
2023/09/14 01:57:36;;;;;;;41.92;16.50;;;14.50;99.90;;;;;;8158820;29;20056;-78
2023/09/14 02:01:37;;;;;;;32.42;16.95;;;14.60;99.90;;;;;;8158750;29;20032;-79
2023/09/14 02:05:40;;;;;;;34.80;16.55;;;14.60;99.90;;;;;;8142900;29;20091;-78
2023/09/14 02:09:40;;;;;;;38.63;16.60;;;14.60;99.90;;;;;;8143450;29;21263;-78
2023/09/14 02:13:41;;;;;;;29.38;14.73;;;14.60;99.90;;;;;;8142956;29;20028;-78
2023/09/14 02:17:41;;;;;;;34.95;14.90;;;14.60;99.90;;;;;;8157861;29;20020;-78
2023/09/14 02:21:42;;;;;;;33.78;16.77;;;14.70;99.90;;;;;;8158387;29;20035;-79
2023/09/14 02:25:43;;;;;;;33.83;16.77;;;14.70;99.90;;;;;;8158255;29;20135;-78
2023/09/14 02:29:44;;;;;;;31.85;14.75;;;14.70;99.90;;;;;;8153465;29;20025;-78
2023/09/14 02:33:44;;;;;;;35.20;15.18;;;14.80;99.90;;;;;;8153045;29;20043;-78
2023/09/14 02:37:45;;;;;;;28.95;14.88;;;14.80;99.90;;;;;;8152997;29;20051;-78
2023/09/14 02:41:45;;;;;;;30.63;14.93;;;14.80;99.90;;;;;;8152951;29;20020;-78
2023/09/14 02:45:46;;;;;;;25.80;15.75;;;14.90;99.90;;;;;;8153083;29;20673;-78
2023/09/14 02:49:46;;;;;;;24.80;14.98;;;15.20;99.90;;;;;;8137960;29;20024;-78
2023/09/14 02:53:47;;;;;;;26.70;15.55;;;15.40;99.90;;;;;;8138206;29;20548;-78
2023/09/14 02:57:47;;;;;;;24.33;14.85;;;15.30;99.90;;;;;;8138334;29;20020;-78
2023/09/14 03:01:49;;;;;;;23.55;13.88;;;15.60;99.90;;;;;;8138075;29;20063;-78
2023/09/14 03:05:50;;;;;;;23.20;14.52;;;15.50;99.90;;;;;;8133250;29;20393;-78
2023/09/14 03:09:50;;;;;;;22.77;14.65;;;15.40;99.90;;;;;;8137712;29;20026;-78
2023/09/14 03:13:51;;;;;;;20.00;13.07;;;15.40;99.90;;;;;;8135406;29;20040;-79
2023/09/14 03:17:51;;;;;;;21.25;12.68;;;15.30;99.90;;;;;;8151501;29;20032;-78
2023/09/14 03:21:52;;;;;;;23.33;13.15;;;15.20;99.90;;;;;;8151906;29;20035;-78
2023/09/14 03:25:53;;;;;;;19.73;12.73;;;15.10;99.90;;;;;;8151524;29;20039;-78
2023/09/14 03:29:53;;;;;;;25.40;13.38;;;15.10;99.90;;;;;;8151607;29;20436;-78
2023/09/14 03:33:54;;;;;;;22.58;12.85;;;15.50;99.90;;;;;;8151289;29;20030;-77
2023/09/14 03:37:54;;;;;;;18.33;13.07;;;15.40;99.90;;;;;;8136405;29;20388;-78
2023/09/14 03:41:55;;;;;;;23.88;13.85;;;15.30;99.90;;;;;;8151022;29;20024;-78
2023/09/14 03:45:57;;;;;;;22.75;13.60;;;15.30;99.90;;;;;;8150655;29;20032;-78
2023/09/14 03:49:57;;;;;;;29.80;13.20;;;15.20;99.90;;;;;;8148978;29;20657;-79
2023/09/14 03:53:58;;;;;;;23.75;14.75;;;15.10;99.90;;;;;;8150044;29;20024;-78
2023/09/14 03:57:59;;;;;;;22.77;13.38;;;15.10;99.90;;;;;;8151721;29;20036;-78
2023/09/14 04:01:59;;;;;;;20.77;14.07;;;15.20;99.90;;;;;;8150538;29;20020;-78
2023/09/14 04:06:00;;;;;;;21.42;13.30;;;15.40;99.90;;;;;;8155574;29;20071;-79
2023/09/14 04:10:02;;;;;;;22.45;13.13;;;15.30;99.90;;;;;;8135615;29;20051;-78
2023/09/14 04:14:03;;;;;;;26.73;13.98;;;15.10;99.90;;;;;;8134840;29;20032;-78
2023/09/14 04:18:03;;;;;;;23.20;12.68;;;15.00;99.90;;;;;;8148946;29;20024;-78
2023/09/14 04:22:05;;;;;;;21.23;12.43;;;15.10;99.90;;;;;;8148354;29;20051;-79
2023/09/14 04:26:05;;;;;;;26.30;12.90;;;15.00;99.90;;;;;;8134415;29;20059;-78
2023/09/14 04:30:08;;;;;;;25.13;12.77;;;15.00;99.90;;;;;;8135240;29;20106;-78
2023/09/14 04:34:09;;;;;;;23.50;12.85;;;15.10;99.90;;;;;;8149288;29;20039;-77
2023/09/14 04:38:10;;;;;;;27.02;13.05;;;15.10;99.90;;;;;;8148375;29;20032;-79
2023/09/14 04:42:10;;;;;;;18.55;12.32;;;15.00;99.90;;;;;;8155656;29;20036;-78
2023/09/14 04:46:11;;;;;;;29.35;13.05;;;15.00;99.90;;;;;;8134179;29;20067;-78
2023/09/14 04:50:12;;;;;;;23.50;14.20;;;15.00;99.90;;;;;;8134546;29;20024;-78
2023/09/14 04:54:12;;;;;;;24.77;14.10;;;15.20;99.90;;;;;;8133778;29;20668;-78
2023/09/14 04:58:13;;;;;;;19.85;13.45;;;15.40;99.90;;;;;;8134767;29;20096;-78
2023/09/14 05:02:13;;;;;;;19.35;13.00;;;15.50;99.90;;;;;;8132537;29;20059;-79
2023/09/14 05:06:14;;;;;;;21.33;12.80;;;15.60;99.90;;;;;;8148551;29;20024;-78
2023/09/14 05:10:16;;;;;;;17.95;11.75;;;15.80;99.90;;;;;;8134527;29;20027;-79
2023/09/14 05:14:16;;;;;;;23.60;14.52;;;16.00;99.90;;;;;;8148851;29;20032;-78
2023/09/14 05:18:17;;;;;;;23.95;14.73;;;15.80;99.90;;;;;;8148294;29;20035;-78
2023/09/14 05:22:17;;;;;;;28.55;14.90;;;15.60;99.90;;;;;;8149805;29;20055;-79
2023/09/14 05:26:18;;;;;;;25.58;14.93;;;15.80;99.90;;;;;;8133207;29;20076;-79
2023/09/14 05:30:23;;;;;;;21.10;13.63;;;15.80;99.90;;;;;;8148848;29;20055;-79
2023/09/14 05:34:24;;;;;;;25.20;14.80;;;15.80;99.90;;;;;;8145393;29;20020;-79
2023/09/14 05:38:25;;;;;;;26.17;16.33;;;15.70;99.90;;;;;;8148893;29;20020;-79
2023/09/14 05:42:25;;;;;;;27.38;16.65;;;15.80;99.90;;;;;;8133300;29;20087;-79
2023/09/14 05:46:26;;;;;;;27.38;17.48;;;15.80;99.90;;;;;;8134137;29;20020;-78
2023/09/14 05:50:26;;;;;;;24.58;15.57;;;15.70;99.90;;;;;;8148905;29;20052;-79
2023/09/14 05:54:28;;;;;;;24.20;15.68;;;16.00;99.90;;;;;;8148712;29;20155;-79
2023/09/14 05:58:28;;;;;;;23.85;15.23;;;16.10;99.90;;;;;;8134089;29;20580;-79
2023/09/14 06:02:29;;;;;;;24.50;14.60;;;16.10;99.90;;;;;;8149478;29;20024;-79
2023/09/14 06:06:29;;;;;;;23.35;14.50;;;16.10;99.90;;;;;;8153496;29;20431;-79
2023/09/14 06:10:30;;;;;;;20.52;13.43;;;16.30;99.90;;;;;;8139490;29;20028;-80
2023/09/14 06:14:32;;;;;;;19.02;13.55;;;16.30;99.90;;;;;;8153871;29;20032;-78
2023/09/14 06:18:33;;;;;;;23.30;14.00;;;16.40;99.90;;;;;;8153497;29;20031;-79
2023/09/14 06:22:34;;;;;;;23.20;13.70;;;16.80;99.90;;;;;;8139043;29;20177;-79
2023/09/14 06:26:34;;;;;;;21.85;13.07;;;16.70;99.90;;;;;;8137366;29;20028;-78
2023/09/14 06:30:35;;;;;;;22.30;14.77;;;16.60;99.90;;;;;;8138127;29;20024;-78
2023/09/14 06:34:35;;;;;;;20.95;14.13;;;16.70;99.90;;;;;;8153421;29;20031;-78
2023/09/14 06:38:36;;;;;;;21.77;14.88;;;16.60;99.90;;;;;;8138870;29;20536;-79
2023/09/14 06:42:37;;;;;;;22.25;14.30;;;16.70;99.90;;;;;;8152967;29;20031;-79
2023/09/14 06:46:38;;;;;;;21.92;13.90;;;16.90;99.90;;;;;;8152366;29;20111;-79
2023/09/14 06:50:39;;;;;;;20.65;14.00;;;17.00;99.90;;;;;;8138634;29;20151;-79
2023/09/14 06:54:39;;;;;;;20.13;14.25;;;17.10;99.90;;;;;;8153252;29;20020;-78
2023/09/14 06:58:40;;;;;;;21.55;14.70;;;17.20;99.90;;;;;;8152946;29;20050;-78
2023/09/14 07:02:41;;;;;;;23.80;15.38;;;17.40;99.90;;;;;;8137968;29;20107;-79
2023/09/14 07:06:42;;;;;;;20.23;14.15;;;17.40;99.90;;;;;;8151842;29;20028;-78
2023/09/14 07:10:42;;;;;;;21.08;14.63;;;17.50;99.90;;;;;;8152513;29;20092;-78
2023/09/14 07:14:43;;;;;;;22.58;15.10;;;17.80;99.90;;;;;;8151209;29;20061;-79
2023/09/14 07:18:43;;;;;;;23.02;14.00;;;17.90;99.90;;;;;;8136188;29;20024;-79
2023/09/14 07:22:44;;;;;;;22.63;15.57;;;18.40;99.90;;;;;;8152448;29;20075;-78
2023/09/14 07:26:44;;;;;;;25.02;16.50;;;18.30;99.90;;;;;;8151838;29;20040;-79
2023/09/14 07:30:47;;;;;;;22.17;16.00;;;18.40;99.90;;;;;;8136423;29;20119;-78
2023/09/14 07:34:47;;;;;;;24.70;16.75;;;18.10;99.90;;;;;;8151839;29;20499;-78
2023/09/14 07:38:48;;;;;;;26.15;17.23;;;18.20;99.90;;;;;;8151723;29;20107;-78
2023/09/14 07:42:48;;;;;;;27.40;18.40;;;18.30;99.90;;;;;;8135800;29;20028;-79
2023/09/14 07:46:49;;;;;;;29.67;18.65;;;18.50;99.90;;;;;;8136687;29;20125;-78
2023/09/14 07:50:50;;;;;;;27.70;18.08;;;18.60;99.90;;;;;;8136777;29;20020;-79
2023/09/14 07:54:51;;;;;;;28.65;19.10;;;18.70;99.90;;;;;;8136517;29;20024;-78
2023/09/14 07:58:53;;;;;;;33.75;19.30;;;18.70;99.90;;;;;;8150944;29;20092;-78
2023/09/14 08:02:54;;;;;;;32.50;19.58;;;18.80;99.90;;;;;;8135996;29;20020;-79
2023/09/14 08:06:54;;;;;;;27.58;18.92;;;18.90;99.90;;;;;;8150081;29;20458;-78
2023/09/14 08:10:55;;;;;;;26.75;18.60;;;18.80;99.90;;;;;;8139813;29;20107;-79
2023/09/14 08:14:56;;;;;;;30.83;18.88;;;19.00;99.90;;;;;;8135571;29;20107;-79
2023/09/14 08:18:57;;;;;;;26.27;18.45;;;19.00;99.90;;;;;;8154321;29;20031;-79
2023/09/14 08:22:58;;;;;;;31.08;18.45;;;19.30;99.90;;;;;;8150209;29;20409;-79
2023/09/14 08:26:59;;;;;;;26.33;18.35;;;19.40;99.90;;;;;;8134461;29;20112;-78
2023/09/14 08:30:59;;;;;;;27.15;18.85;;;19.40;99.90;;;;;;8135463;29;20028;-79
2023/09/14 08:35:19;;;;;;;26.00;17.90;;;19.80;99.90;;;;;;8133852;29;20686;-79
2023/09/14 08:39:20;;;;;;;21.87;15.57;;;20.10;99.90;;;;;;8150075;29;20401;-79
2023/09/14 08:43:21;;;;;;;20.02;15.73;;;20.60;99.90;;;;;;8149632;29;20032;-79
2023/09/14 08:47:22;;;;;;;21.67;14.43;;;21.30;99.90;;;;;;8149424;29;20024;-79
2023/09/14 08:51:25;;;;;;;20.20;13.65;;;21.60;99.90;;;;;;8135380;29;20020;-79
2023/09/14 08:55:29;;;;;;;21.10;13.68;;;21.80;99.90;;;;;;8130703;29;20028;-78
2023/09/14 08:59:31;;;;;;;21.70;14.43;;;21.40;99.90;;;;;;8149320;29;20035;-79
2023/09/14 09:03:34;;;;;;;21.42;14.10;;;21.40;99.90;;;;;;8148439;29;20020;-79
2023/09/14 09:07:35;;;;;;;20.45;13.02;;;21.70;99.90;;;;;;8134200;29;20092;-79
2023/09/14 09:11:37;;;;;;;17.67;13.02;;;21.70;99.90;;;;;;8149321;29;20024;-79
2023/09/14 09:15:38;;;;;;;18.65;13.73;;;21.90;99.90;;;;;;8148593;29;20028;-79
2023/09/14 09:19:47;;;;;;;16.75;12.50;;;22.00;99.90;;;;;;8133138;29;20020;-79
2023/09/14 09:23:47;;;;;;;17.65;13.40;;;22.10;99.90;;;;;;8134578;29;20473;-78
2023/09/14 09:28:00;;;;;;;19.83;13.25;;;22.10;99.90;;;;;;8149101;29;20044;-80
2023/09/14 09:32:00;;;;;;;17.95;13.82;;;22.20;99.90;;;;;;8134655;29;20028;-79
2023/09/14 09:36:14;;;;;;;19.33;13.30;;;22.20;99.90;;;;;;8148998;29;20067;-79
2023/09/14 09:40:20;;;;;;;17.27;13.38;;;22.70;99.90;;;;;;8139865;29;20028;-79
2023/09/14 09:44:27;;;;;;;17.40;12.50;;;22.40;99.90;;;;;;8140503;29;20035;-79
2023/09/14 09:48:31;;;;;;;19.35;13.65;;;22.60;99.90;;;;;;8155006;29;20539;-79
2023/09/14 09:52:34;;;;;;;22.55;14.65;;;21.70;99.90;;;;;;8140277;29;20024;-79
2023/09/14 09:56:38;;;;;;;19.20;13.63;;;21.00;99.90;;;;;;8154564;29;20091;-79
2023/09/14 10:00:39;;;;;;;17.60;13.13;;;20.50;99.90;;;;;;8155038;29;20044;-79
2023/09/14 10:04:52;;;;;;;23.35;15.15;;;20.40;99.90;;;;;;8154018;29;20032;-79
2023/09/14 10:08:56;;;;;;;23.48;15.48;;;20.40;99.90;;;;;;8139543;29;20497;-79
2023/09/14 10:13:00;;;;;;;21.05;14.75;;;20.20;99.90;;;;;;8139480;29;20397;-80
2023/09/14 10:17:06;;;;;;;22.80;14.30;;;20.10;99.90;;;;;;8154134;29;20052;-79
2023/09/14 10:21:07;;;;;;;21.05;13.82;;;20.10;99.90;;;;;;8138762;29;20050;-79
2023/09/14 10:25:09;;;;;;;19.80;13.13;;;20.10;99.90;;;;;;8154414;29;20441;-80
2023/09/14 10:29:10;;;;;;;16.75;12.23;;;19.90;99.90;;;;;;8154290;29;20020;-79
2023/09/14 10:33:11;;;;;;;16.98;13.20;;;19.70;99.90;;;;;;8154304;29;20084;-80
2023/09/14 10:37:13;;;;;;;20.83;13.68;;;19.60;99.90;;;;;;8154063;29;20039;-80
2023/09/14 10:41:14;;;;;;;19.95;13.70;;;19.50;99.90;;;;;;8154016;29;20115;-79
2023/09/14 10:45:15;;;;;;;17.75;13.20;;;19.80;99.90;;;;;;8138218;29;20179;-79
2023/09/14 10:49:16;;;;;;;19.48;14.30;;;19.80;99.90;;;;;;8152309;29;20032;-79
2023/09/14 10:53:17;;;;;;;17.42;13.75;;;19.70;99.90;;;;;;8153290;29;20556;-79
2023/09/14 10:57:27;;;;;;;19.48;12.90;;;20.00;99.90;;;;;;8138618;29;20040;-80
2023/09/14 11:01:28;;;;;;;19.45;14.07;;;20.50;99.90;;;;;;8152876;29;20038;-79
2023/09/14 11:05:43;;;;;;;16.05;11.77;;;20.90;99.90;;;;;;8137282;29;20038;-79
2023/09/14 11:10:03;;;;;;;16.80;11.70;;;21.10;99.90;;;;;;8152362;29;20024;-79
2023/09/14 11:14:08;;;;;;;17.90;13.38;;;21.60;99.90;;;;;;8137498;29;20393;-81
2023/09/14 11:18:08;;;;;;;16.90;12.48;;;22.20;99.90;;;;;;8152097;29;20035;-79
2023/09/14 11:22:14;;;;;;;19.73;11.63;;;22.20;99.90;;;;;;8152297;29;20281;-77
2023/09/14 11:26:15;;;;;;;13.38;11.25;;;22.50;99.90;;;;;;8136629;29;20035;-79
2023/09/14 11:30:16;;;;;;;13.05;10.73;;;22.70;99.90;;;;;;8151974;29;20028;-80
2023/09/14 11:34:18;;;;;;;18.13;9.93;;;23.10;99.90;;;;;;8150821;29;20366;-79
2023/09/14 11:38:23;;;;;;;13.38;9.15;;;22.60;99.90;;;;;;8151753;29;20026;-79
2023/09/14 11:42:24;;;;;;;11.00;8.73;;;22.80;99.90;;;;;;8151824;29;20035;-78
2023/09/14 11:46:25;;;;;;;11.75;8.38;;;22.90;99.90;;;;;;8136841;29;20020;-79
2023/09/14 11:50:28;;;;;;;11.63;8.20;;;23.10;99.90;;;;;;8151673;29;20020;-79
2023/09/14 11:54:29;;;;;;;9.13;7.25;;;23.00;99.90;;;;;;8151497;29;20043;-79
2023/09/14 11:58:36;;;;;;;10.13;7.60;;;23.30;99.90;;;;;;8151149;29;20481;-79
2023/09/14 12:02:37;;;;;;;12.40;8.60;;;24.20;99.90;;;;;;8150837;29;20028;-80
2023/09/14 12:06:38;;;;;;;10.82;8.35;;;25.10;99.90;;;;;;8135953;29;20556;-80
2023/09/14 12:10:39;;;;;;;10.10;6.82;;;24.50;99.90;;;;;;8150952;29;20031;-80
2023/09/14 12:14:43;;;;;;;11.15;7.20;;;24.40;99.90;;;;;;8150584;29;20495;-80
2023/09/14 12:18:44;;;;;;;8.93;7.07;;;24.20;99.90;;;;;;8135910;29;20080;-80
2023/09/14 12:22:45;;;;;;;10.30;6.78;;;24.60;99.90;;;;;;8150271;29;20024;-80
2023/09/14 12:26:46;;;;;;;10.40;6.90;;;26.80;99.90;;;;;;8133736;29;20120;-80
2023/09/14 12:30:46;;;;;;;6.90;5.90;;;28.70;99.90;;;;;;8150087;29;20024;-81
2023/09/14 12:34:47;;;;;;;10.45;6.40;;;28.10;99.90;;;;;;8150300;29;20028;-80
2023/09/14 12:38:48;;;;;;;6.75;6.03;;;25.80;99.90;;;;;;8150216;29;20035;-80
2023/09/14 12:42:50;;;;;;;8.80;6.38;;;24.90;99.90;;;;;;8149162;29;20031;-80
2023/09/14 12:46:51;;;;;;;6.65;5.65;;;24.40;99.90;;;;;;8149775;29;20031;-80
2023/09/14 12:50:52;;;;;;;9.25;6.40;;;24.60;99.90;;;;;;8150070;29;20396;-80
2023/09/14 12:54:53;;;;;;;8.32;5.95;;;25.10;99.90;;;;;;8134977;29;20054;-80
2023/09/14 12:58:54;;;;;;;6.75;4.20;;;26.40;99.90;;;;;;8149582;29;20030;-80
2023/09/14 13:02:56;;;;;;;5.95;4.80;;;27.10;99.90;;;;;;8154552;29;20028;-80
2023/09/14 13:06:56;;;;;;;12.05;5.00;;;25.50;99.90;;;;;;8149415;29;20052;-80
2023/09/14 13:10:57;;;;;;;7.38;5.80;;;24.40;99.90;;;;;;8152289;29;20083;-80
2023/09/14 13:14:57;;;;;;;6.45;5.38;;;23.50;99.90;;;;;;8148625;29;20177;-80
2023/09/14 13:19:00;;;;;;;8.50;5.75;;;22.90;99.90;;;;;;8148936;29;20036;-80
2023/09/14 13:23:02;;;;;;;8.45;6.15;;;22.70;99.90;;;;;;8148722;29;20090;-79
2023/09/14 13:27:03;;;;;;;8.25;5.90;;;22.60;99.90;;;;;;8134775;29;20028;-80
2023/09/14 13:31:04;;;;;;;5.82;4.97;;;23.40;99.90;;;;;;8135063;29;20111;-80
2023/09/14 13:35:10;;;;;;;6.13;5.30;;;24.60;99.90;;;;;;8148022;29;20028;-80
2023/09/14 13:39:10;;;;;;;6.25;4.72;;;24.70;99.90;;;;;;8149251;29;20028;-81
2023/09/14 13:43:11;;;;;;;7.53;5.30;;;27.10;99.90;;;;;;8149526;29;20518;-80
2023/09/14 13:47:11;;;;;;;6.85;5.07;;;28.10;99.90;;;;;;8147674;29;20038;-80
2023/09/14 13:51:13;;;;;;;6.88;4.57;;;27.80;99.90;;;;;;8147839;29;20187;-80
2023/09/14 13:55:15;;;;;;;9.25;6.78;;;27.50;99.90;;;;;;8134432;29;20119;-80
2023/09/14 13:59:16;;;;;;;10.30;5.22;;;27.60;99.90;;;;;;8149046;29;20488;-80
2023/09/14 14:03:17;;;;;;;7.00;5.78;;;25.80;99.90;;;;;;8132847;29;20028;-80
2023/09/14 14:07:18;;;;;;;6.95;5.80;;;24.40;99.90;;;;;;8148540;29;20024;-80
2023/09/14 14:11:20;;;;;;;7.15;5.38;;;23.30;99.90;;;;;;8133890;29;20504;-79
2023/09/14 14:15:21;;;;;;;8.00;5.72;;;22.70;99.90;;;;;;8136468;29;20032;-79
2023/09/14 14:19:21;;;;;;;8.55;4.82;;;22.10;99.90;;;;;;8147387;29;20191;-79
2023/09/14 14:23:22;;;;;;;6.25;5.22;;;23.30;99.90;;;;;;8134788;29;20040;-79
2023/09/14 14:27:23;;;;;;;14.35;5.20;;;24.80;99.90;;;;;;8138970;29;20028;-79
2023/09/14 14:31:23;;;;;;;6.45;4.97;;;25.70;99.90;;;;;;8139344;29;20103;-79
2023/09/14 14:35:24;;;;;;;8.80;6.35;;;25.80;99.90;;;;;;8139122;29;20020;-79
2023/09/14 14:39:24;;;;;;;8.00;6.05;;;25.60;99.90;;;;;;8153717;29;20020;-78
2023/09/14 14:43:25;;;;;;;12.10;6.32;;;26.00;99.90;;;;;;8153439;29;20032;-79
2023/09/14 14:47:26;;;;;;;9.13;6.18;;;26.40;99.90;;;;;;8150044;29;20039;-79
2023/09/14 14:51:27;;;;;;;6.55;5.15;;;24.00;99.90;;;;;;8137063;29;20455;-80
2023/09/14 14:55:28;;;;;;;8.55;4.50;;;22.30;99.90;;;;;;8137807;29;20031;-79
2023/09/14 14:59:28;;;;;;;6.43;4.22;;;23.60;99.90;;;;;;8151670;29;20028;-79
2023/09/14 15:03:29;;;;;;;6.15;4.75;;;24.80;99.90;;;;;;8135568;29;20031;-83
2023/09/14 15:07:29;;;;;;;6.43;4.32;;;24.60;99.90;;;;;;8153342;29;20035;-83
2023/09/14 15:11:30;;;;;;;6.55;4.20;;;23.80;99.90;;;;;;8152494;29;20130;-84
2023/09/14 15:15:30;;;;;;;7.28;5.00;;;22.90;99.90;;;;;;8152571;29;20056;-84
2023/09/14 15:19:33;;;;;;;5.32;4.60;;;22.30;99.90;;;;;;8153149;29;20027;-84
2023/09/14 15:23:34;;;;;;;7.45;4.70;;;22.20;99.90;;;;;;8151731;29;20495;-85
2023/09/14 15:27:35;;;;;;;5.88;4.90;;;22.20;99.90;;;;;;8152157;29;20207;-83
2023/09/14 15:31:36;;;;;;;7.07;4.93;;;21.90;99.90;;;;;;8152626;29;20032;-84
2023/09/14 15:35:36;;;;;;;9.52;4.90;;;21.40;99.90;;;;;;8150584;29;20058;-85
2023/09/14 15:39:38;;;;;;;5.82;4.57;;;21.20;99.90;;;;;;8151542;29;20024;-85
2023/09/14 15:43:43;;;;;;;6.35;4.75;;;21.20;99.90;;;;;;8152895;29;20050;-84
2023/09/14 15:47:49;;;;;;;5.20;4.18;;;21.50;99.90;;;;;;8150110;29;20055;-85
2023/09/14 15:51:50;;;;;;;8.02;4.85;;;21.60;99.90;;;;;;8151982;29;20560;-83
2023/09/14 15:55:54;;;;;;;5.65;4.60;;;21.20;99.90;;;;;;8151773;29;20079;-83
2023/09/14 15:59:55;;;;;;;6.45;4.80;;;20.90;99.90;;;;;;8151486;29;20549;-82
2023/09/14 16:03:56;;;;;;;5.28;4.18;;;20.80;99.90;;;;;;8151122;29;20020;-83
2023/09/14 16:08:04;;;;;;;9.57;5.03;;;20.80;99.90;;;;;;8150931;29;20079;-82
2023/09/14 16:12:05;;;;;;;6.68;4.40;;;20.60;99.90;;;;;;8148912;29;20024;-82
2023/09/14 16:16:06;;;;;;;6.85;4.60;;;20.50;99.90;;;;;;8135914;29;20040;-82
2023/09/14 16:20:08;;;;;;;6.05;4.78;;;20.30;99.90;;;;;;8150184;29;20036;-82
2023/09/14 16:24:10;;;;;;;6.45;4.88;;;20.30;99.90;;;;;;8134894;29;20581;-83
2023/09/14 16:28:14;;;;;;;5.50;4.07;;;20.20;99.90;;;;;;8150827;29;20039;-83
2023/09/14 16:32:14;;;;;;;6.10;4.47;;;20.30;99.90;;;;;;8149843;29;20028;-81
2023/09/14 16:36:15;;;;;;;6.10;5.10;;;20.30;99.90;;;;;;8134188;29;20046;-81
2023/09/14 16:40:16;;;;;;;6.57;4.80;;;20.20;99.90;;;;;;8131614;29;20032;-82
2023/09/14 16:44:17;;;;;;;4.53;4.05;;;20.20;99.90;;;;;;8149614;29;20088;-82
2023/09/14 16:48:17;;;;;;;5.93;4.68;;;20.00;99.90;;;;;;8148865;29;20028;-82
2023/09/14 16:52:18;;;;;;;6.07;4.45;;;20.00;99.90;;;;;;8150062;29;20392;-81
2023/09/14 16:56:18;;;;;;;4.82;4.10;;;19.70;99.90;;;;;;8150938;29;20031;-81
2023/09/14 17:00:19;;;;;;;6.95;4.80;;;19.80;99.90;;;;;;8135776;29;20044;-81
2023/09/14 17:04:21;;;;;;;4.78;4.15;;;19.70;99.90;;;;;;8134918;29;20079;-81
2023/09/14 17:08:22;;;;;;;6.15;4.45;;;19.50;99.90;;;;;;8148768;29;20047;-82
2023/09/14 17:12:23;;;;;;;7.25;4.00;;;19.30;99.90;;;;;;8151113;29;20040;-81
2023/09/14 17:16:23;;;;;;;7.50;4.43;;;19.20;99.90;;;;;;8150368;29;20032;-81
2023/09/14 17:20:24;;;;;;;5.10;4.20;;;19.10;99.90;;;;;;8147661;29;20100;-81
2023/09/14 17:24:24;;;;;;;6.00;4.50;;;19.10;99.90;;;;;;8135915;29;20515;-81
2023/09/14 17:28:25;;;;;;;7.43;4.43;;;19.10;99.90;;;;;;8132470;29;20040;-81
2023/09/14 17:32:25;;;;;;;5.85;4.18;;;19.10;99.90;;;;;;8137698;29;20042;-81
2023/09/14 17:36:26;;;;;;;4.65;4.20;;;18.90;99.90;;;;;;8147896;29;20477;-81
2023/09/14 17:40:26;;;;;;;6.40;4.63;;;18.70;99.90;;;;;;8154780;29;20044;-82
2023/09/14 17:44:27;;;;;;;6.80;4.90;;;18.60;99.90;;;;;;8130976;29;20158;-81
2023/09/14 17:48:28;;;;;;;6.00;4.22;;;18.60;99.90;;;;;;8134065;29;20551;-81
2023/09/14 17:52:28;;;;;;;6.35;4.47;;;18.60;99.90;;;;;;8146792;29;20036;-81
2023/09/14 17:56:31;;;;;;;8.55;5.00;;;18.40;99.90;;;;;;8131111;29;20027;-81
2023/09/14 18:00:32;;;;;;;6.25;4.55;;;18.10;99.90;;;;;;8136074;29;20028;-81
2023/09/14 18:04:34;;;;;;;4.93;4.32;;;18.00;99.90;;;;;;8159537;29;20099;-81
2023/09/14 18:08:36;;;;;;;4.93;4.25;;;17.80;99.90;;;;;;8140332;29;20599;-80
2023/09/14 18:12:37;;;;;;;8.45;4.85;;;17.60;99.90;;;;;;8144286;29;20060;-81
2023/09/14 18:16:39;;;;;;;5.50;4.43;;;17.40;99.90;;;;;;8137435;29;20032;-82
2023/09/14 18:20:39;;;;;;;7.10;4.65;;;17.30;99.90;;;;;;8141937;29;20454;-81
2023/09/14 18:24:40;;;;;;;6.05;4.45;;;17.20;99.90;;;;;;8153611;29;20230;-82
2023/09/14 18:28:41;;;;;;;6.13;4.57;;;17.40;99.90;;;;;;8153206;29;20076;-82
2023/09/14 18:32:51;;;;;;;5.07;4.45;;;17.60;99.90;;;;;;8136759;29;20039;-82
2023/09/14 18:36:52;;;;;;;9.55;4.88;;;17.30;99.90;;;;;;8168495;29;20620;-81
2023/09/14 18:41:01;;;;;;;9.32;5.18;;;16.90;99.90;;;;;;8151201;29;20039;-81
2023/09/14 18:45:02;;;;;;;10.32;5.22;;;16.60;99.90;;;;;;8143917;29;20016;-82
2023/09/14 18:49:04;;;;;;;7.50;5.03;;;16.50;99.90;;;;;;8152600;29;20271;-81
2023/09/14 18:53:07;;;;;;;7.07;4.95;;;16.50;99.90;;;;;;8149472;29;20032;-81
2023/09/14 18:57:08;;;;;;;7.20;4.60;;;16.50;99.90;;;;;;8148464;29;20043;-81
2023/09/14 19:01:08;;;;;;;7.18;5.00;;;16.70;99.90;;;;;;8157463;29;20437;-80
2023/09/14 19:05:09;;;;;;;8.05;5.07;;;16.80;99.90;;;;;;8136844;29;20043;-82
2023/09/14 19:09:10;;;;;;;5.40;4.38;;;17.10;99.90;;;;;;8137225;29;20032;-81
2023/09/14 19:13:10;;;;;;;6.63;4.40;;;17.00;99.90;;;;;;8151270;29;20074;-81
2023/09/14 19:17:11;;;;;;;5.00;4.03;;;17.00;99.90;;;;;;8133506;29;20036;-80
2023/09/14 19:21:11;;;;;;;5.47;4.05;;;17.10;99.90;;;;;;8154761;29;20028;-81
2023/09/14 19:25:13;;;;;;;7.38;4.13;;;17.20;99.90;;;;;;8137019;29;20413;-81
2023/09/14 19:29:14;;;;;;;4.97;3.60;;;17.20;99.90;;;;;;8152259;29;20039;-82
2023/09/14 19:33:14;;;;;;;7.10;3.85;;;17.20;99.90;;;;;;8152947;29;20083;-81
2023/09/14 19:37:15;;;;;;;7.65;3.95;;;17.50;99.90;;;;;;8151626;29;20084;-81
2023/09/14 19:41:16;;;;;;;5.63;3.85;;;17.40;99.90;;;;;;8136532;29;20488;-81
2023/09/14 19:45:16;;;;;;;4.95;3.50;;;17.20;99.90;;;;;;8151840;29;20031;-81
2023/09/14 19:49:17;;;;;;;4.43;3.58;;;17.00;99.90;;;;;;8150723;29;20036;-82
2023/09/14 19:53:20;;;;;;;8.70;4.00;;;17.00;99.90;;;;;;8136092;29;20031;-81
2023/09/14 19:57:20;;;;;;;6.70;3.55;;;17.00;99.90;;;;;;8151726;29;20024;-82
2023/09/14 20:01:21;;;;;;;4.85;4.15;;;17.00;99.90;;;;;;8151685;29;20516;-82
2023/09/14 20:05:22;;;;;;;4.75;3.55;;;16.90;99.90;;;;;;8135949;29;20035;-82
2023/09/14 20:09:24;;;;;;;4.75;4.05;;;16.70;99.90;;;;;;8149855;29;20032;-82
2023/09/14 20:13:24;;;;;;;5.25;3.83;;;16.60;99.90;;;;;;8134729;29;20035;-81
2023/09/14 20:17:26;;;;;;;7.10;3.80;;;16.60;99.90;;;;;;8134534;29;20024;-81
2023/09/14 20:21:26;;;;;;;6.60;3.92;;;16.40;99.90;;;;;;8149786;29;20029;-80
2023/09/14 20:25:27;;;;;;;5.85;4.13;;;16.40;99.90;;;;;;8150456;29;20218;-82
2023/09/14 20:29:29;;;;;;;5.88;4.53;;;16.50;99.90;;;;;;8150617;29;20059;-82
2023/09/14 20:33:30;;;;;;;5.30;4.25;;;16.50;99.90;;;;;;8150497;29;20058;-82
2023/09/14 20:37:30;;;;;;;4.32;3.83;;;16.50;99.90;;;;;;8151302;29;20020;-82